createdAt,value
2018-02-17T00:01:27.914Z,101217.70
2018-02-17T00:03:57.127Z,101217.58
2018-02-17T00:06:26.339Z,101218.84
2018-02-17T00:08:55.614Z,101222.91
2018-02-17T00:11:24.822Z,101236.91
2018-02-17T00:13:54.047Z,101227.29
2018-02-17T00:16:23.267Z,101228.67
2018-02-17T00:18:52.483Z,101224.45
2018-02-17T00:21:21.706Z,101218.01
2018-02-17T00:23:50.934Z,101221.42
2018-02-17T00:26:20.174Z,101200.23
2018-02-17T00:28:50.218Z,101194.88
2018-02-17T00:31:19.572Z,101194.64
2018-02-17T00:33:50.288Z,101199.46
2018-02-17T00:36:19.527Z,101194.93
2018-02-17T00:38:49.532Z,101191.11
2018-02-17T00:41:18.759Z,101187.83
2018-02-17T00:43:48.758Z,101187.14
2018-02-17T00:46:18.825Z,101183.11
2018-02-17T00:48:48.770Z,101185.66
2018-02-17T00:51:18.195Z,101177.80
2018-02-17T00:53:48.191Z,101181.12
2018-02-17T00:56:17.407Z,101175.04
2018-02-17T00:58:46.583Z,101171.83
2018-02-17T01:01:15.827Z,101170.66
2018-02-17T01:03:45.107Z,101161.84
2018-02-17T01:06:15.827Z,101163.78
2018-02-17T01:08:45.826Z,101163.38
2018-02-17T01:11:15.068Z,101168.61
2018-02-17T01:13:46.037Z,101156.97
2018-02-17T01:16:15.269Z,101160.17
2018-02-17T01:18:44.494Z,101156.16
2018-02-17T01:21:14.502Z,101152.47
2018-02-17T01:23:43.916Z,101144.81
2018-02-17T01:26:13.592Z,101134.50
2018-02-17T01:28:42.845Z,101139.41
2018-02-17T01:31:12.813Z,101132.25
2018-02-17T01:33:42.054Z,101136.91
2018-02-17T01:36:12.028Z,101124.83
2018-02-17T01:38:41.318Z,101120.56
2018-02-17T01:41:10.561Z,101112.13
2018-02-17T01:43:40.547Z,101105.88
2018-02-17T01:46:09.827Z,101094.23
2018-02-17T01:48:39.103Z,101089.41
2018-02-17T01:51:08.324Z,101089.81
2018-02-17T01:53:37.551Z,101088.34
2018-02-17T01:56:06.840Z,101089.28
2018-02-17T01:58:37.620Z,101087.39
2018-02-17T02:01:06.819Z,101093.80
2018-02-17T02:03:37.132Z,101097.70
2018-02-17T02:06:07.130Z,101088.85
2018-02-17T02:08:37.185Z,101093.08
2018-02-17T02:11:06.444Z,101096.47
2018-02-17T02:13:35.687Z,101093.10
2018-02-17T02:16:04.906Z,101090.32
2018-02-17T02:18:34.314Z,101085.33
2018-02-17T02:21:03.607Z,101094.91
2018-02-17T02:23:32.814Z,101099.38
2018-02-17T02:26:02.916Z,101097.91
2018-02-17T02:28:32.871Z,101103.27
2018-02-17T02:31:02.926Z,101095.04
2018-02-17T02:33:32.102Z,101090.70
2018-02-17T02:36:01.324Z,101092.17
2018-02-17T02:38:30.527Z,101091.97
2018-02-17T02:40:59.779Z,101088.55
2018-02-17T02:43:29.795Z,101089.83
2018-02-17T02:45:59.157Z,101092.47
2018-02-17T02:48:28.359Z,101085.73
2018-02-17T02:50:57.685Z,101082.16
2018-02-17T02:53:26.884Z,101086.12
2018-02-17T02:55:56.108Z,101082.41
2018-02-17T02:58:25.324Z,101079.86
2018-02-17T03:00:54.561Z,101075.73
2018-02-17T03:03:23.811Z,101071.06
2018-02-17T03:05:53.806Z,101076.26
2018-02-17T03:08:23.825Z,101068.19
2018-02-17T03:10:53.067Z,101067.70
2018-02-17T03:13:22.363Z,101071.63
2018-02-17T03:15:51.616Z,101068.74
2018-02-17T03:18:20.838Z,101074.78
2018-02-17T03:20:50.828Z,101078.27
2018-02-17T03:23:20.060Z,101077.63
2018-02-17T03:25:50.018Z,101076.81
2018-02-17T03:28:19.341Z,101065.70
2018-02-17T03:30:48.557Z,101065.02
2018-02-17T03:33:17.946Z,101070.23
2018-02-17T03:35:47.975Z,101065.25
2018-02-17T03:38:17.340Z,101066.52
2018-02-17T03:40:46.538Z,101065.52
2018-02-17T03:43:15.823Z,101055.66
2018-02-17T03:45:45.039Z,101048.84
2018-02-17T03:48:14.262Z,101049.60
2018-02-17T03:50:44.226Z,101054.02
2018-02-17T03:53:13.434Z,101042.91
2018-02-17T03:55:42.736Z,101034.76
2018-02-17T03:58:12.107Z,101038.77
2018-02-17T04:00:41.322Z,101035.20
2018-02-17T04:03:10.527Z,101030.31
2018-02-17T04:05:39.754Z,101030.19
2018-02-17T04:08:08.979Z,101028.89
2018-02-17T04:10:38.374Z,101025.84
2018-02-17T04:13:08.596Z,101020.20
2018-02-17T04:15:38.604Z,101022.35
2018-02-17T04:18:08.671Z,101019.05
2018-02-17T04:20:37.934Z,101025.62
2018-02-17T04:23:07.916Z,101014.20
2018-02-17T04:25:37.231Z,101002.16
2018-02-17T04:28:06.544Z,100999.41
2018-02-17T04:30:36.523Z,101001.42
2018-02-17T04:33:05.751Z,101007.06
2018-02-17T04:35:35.134Z,101000.89
2018-02-17T04:38:04.420Z,100999.03
2018-02-17T04:54:14.267Z,100974.84
2018-02-17T04:59:56.476Z,100972.31
2018-02-17T05:02:32.642Z,100967.98
2018-02-17T05:08:24.716Z,100967.62
2018-02-17T05:10:54.699Z,100959.59
2018-02-17T05:13:23.992Z,100953.84
2018-02-17T05:15:58.614Z,100947.15
2018-02-17T05:18:33.625Z,100946.22
2018-02-17T05:21:14.671Z,100947.80
2018-02-17T05:23:45.183Z,100948.73
2018-02-17T05:26:14.734Z,100946.80
2018-02-17T05:28:46.378Z,100942.78
2018-02-17T05:31:15.971Z,100947.05
2018-02-17T05:33:55.105Z,100952.23
2018-02-17T05:36:24.995Z,100940.89
2018-02-17T05:38:54.976Z,100933.64
2018-02-17T05:54:47.525Z,100939.94
2018-02-17T05:57:16.759Z,100933.80
2018-02-17T05:59:45.988Z,100926.73
2018-02-17T06:02:15.211Z,100929.41
2018-02-17T06:04:44.450Z,100922.30
2018-02-17T06:07:13.696Z,100921.73
2018-02-17T06:09:43.061Z,100930.84
2018-02-17T06:12:12.409Z,100942.52
2018-02-17T06:14:41.614Z,100937.64
2018-02-17T06:17:11.602Z,100936.55
2018-02-17T06:19:40.985Z,100934.80
2018-02-17T06:22:10.207Z,100936.14
2018-02-17T06:24:39.424Z,100936.05
2018-02-17T06:27:08.858Z,100930.53
2018-02-17T06:29:38.076Z,100921.73
2018-02-17T06:32:07.301Z,100924.41
2018-02-17T06:34:36.548Z,100918.11
2018-02-17T06:37:05.786Z,100918.45
2018-02-17T06:39:34.999Z,100920.28
2018-02-17T06:42:04.527Z,100924.55
2018-02-17T06:44:34.494Z,100922.88
2018-02-17T06:47:03.742Z,100918.84
2018-02-17T06:49:33.724Z,100911.30
2018-02-17T06:52:02.940Z,100911.63
2018-02-17T06:54:32.128Z,100895.28
2018-02-17T06:57:01.330Z,100890.92
2018-02-17T06:59:30.538Z,100887.38
2018-02-17T07:02:01.412Z,100889.16
2018-02-17T07:04:30.834Z,100887.52
2018-02-17T07:07:00.277Z,100886.61
2018-02-17T07:09:29.699Z,100885.09
2018-02-17T07:11:58.902Z,100884.59
2018-02-17T07:14:28.320Z,100880.92
2018-02-17T07:16:57.544Z,100881.33
2018-02-17T07:19:26.899Z,100888.30
2018-02-17T07:21:56.285Z,100889.16
2018-02-17T07:24:25.698Z,100882.97
2018-02-17T07:26:54.911Z,100883.77
2018-02-17T07:29:24.127Z,100880.37
2018-02-17T07:31:53.361Z,100878.48
2018-02-17T07:34:22.602Z,100878.38
2018-02-17T07:36:51.852Z,100878.69
2018-02-17T07:39:21.460Z,100883.83
2018-02-17T07:41:51.458Z,100878.95
2018-02-17T07:44:20.671Z,100888.41
2018-02-17T07:46:49.896Z,100890.05
2018-02-17T07:49:19.891Z,100889.75
2018-02-17T07:51:49.191Z,100888.48
2018-02-17T07:54:18.554Z,100885.33
2018-02-17T07:56:47.766Z,100883.16
2018-02-17T07:59:16.979Z,100873.95
2018-02-17T08:01:46.228Z,100871.23
2018-02-17T08:04:16.172Z,100878.55
2018-02-17T08:06:45.387Z,100871.83
2018-02-17T08:09:14.623Z,100873.89
2018-02-17T08:11:43.932Z,100872.58
2018-02-17T08:14:13.931Z,100866.50
2018-02-17T08:16:44.037Z,100864.98
2018-02-17T08:19:13.234Z,100858.97
2018-02-17T08:21:42.492Z,100860.56
2018-02-17T08:24:11.747Z,100861.34
2018-02-17T08:26:41.795Z,100859.12
2018-02-17T08:29:11.023Z,100862.73
2018-02-17T08:31:40.245Z,100865.91
2018-02-17T08:34:09.462Z,100870.81
2018-02-17T08:36:39.430Z,100871.51
2018-02-17T08:39:08.746Z,100875.07
2018-02-17T08:41:38.112Z,100875.95
2018-02-17T08:44:07.333Z,100869.61
2018-02-17T08:46:36.539Z,100868.75
2018-02-17T08:49:05.763Z,100873.30
2018-02-17T08:51:35.736Z,100870.36
2018-02-17T08:54:05.047Z,100870.45
2018-02-17T08:56:34.451Z,100872.45
2018-02-17T08:59:03.702Z,100870.17
2018-02-17T09:01:32.931Z,100870.83
2018-02-17T09:04:02.156Z,100863.45
2018-02-17T09:06:31.363Z,100863.87
2018-02-17T09:09:00.686Z,100859.56
2018-02-17T09:11:29.916Z,100867.48
2018-02-17T09:13:59.126Z,100863.07
2018-02-17T09:16:28.371Z,100868.23
2018-02-17T09:18:57.680Z,100863.55
2018-02-17T09:21:26.887Z,100863.00
2018-02-17T09:23:56.372Z,100861.31
2018-02-17T09:26:25.600Z,100858.98
2018-02-17T09:28:54.837Z,100867.83
2018-02-17T09:31:24.139Z,100867.70
2018-02-17T09:33:53.408Z,100867.11
2018-02-17T09:36:23.421Z,100869.92
2018-02-17T09:38:52.618Z,100873.94
2018-02-17T09:41:21.875Z,100872.91
2018-02-17T09:43:51.871Z,100878.09
2018-02-17T09:46:21.859Z,100871.87
2018-02-17T09:48:51.115Z,100870.33
2018-02-17T09:51:21.090Z,100864.89
2018-02-17T09:53:50.550Z,100868.56
2018-02-17T09:56:19.864Z,100867.95
2018-02-17T09:58:49.087Z,100878.03
2018-02-17T10:01:18.335Z,100880.92
2018-02-17T10:03:48.660Z,100871.16
2018-02-17T10:06:19.764Z,100883.84
2018-02-17T10:08:49.018Z,100882.51
2018-02-17T10:11:19.793Z,100883.78
2018-02-17T10:13:48.979Z,100884.03
2018-02-17T10:16:18.344Z,100889.30
2018-02-17T10:18:48.527Z,100884.41
2018-02-17T10:21:18.620Z,100886.27
2018-02-17T10:23:47.883Z,100888.77
2018-02-17T10:26:17.143Z,100884.87
2018-02-17T10:28:46.360Z,100892.05
2018-02-17T10:31:16.458Z,100894.21
2018-02-17T10:33:46.625Z,100888.16
2018-02-17T10:36:15.885Z,100883.05
2018-02-17T10:38:45.857Z,100879.94
2018-02-17T10:41:15.199Z,100883.78
2018-02-17T10:43:44.956Z,100878.91
2018-02-17T10:46:14.153Z,100880.98
2018-02-17T10:48:43.352Z,100882.38
2018-02-17T10:51:12.583Z,100887.36
2018-02-17T10:53:41.811Z,100887.25
2018-02-17T10:56:11.047Z,100893.31
2018-02-17T10:58:40.313Z,100893.39
2018-02-17T11:01:09.572Z,100887.80
2018-02-17T11:03:38.819Z,100895.56
2018-02-17T11:06:08.784Z,100899.71
2018-02-17T11:08:38.079Z,100891.78
2018-02-17T11:11:07.350Z,100890.67
2018-02-17T11:13:36.548Z,100900.75
2018-02-17T11:16:05.775Z,100883.95
2018-02-17T11:18:35.031Z,100889.46
2018-02-17T11:21:04.240Z,100894.44
2018-02-17T11:23:33.454Z,100884.80
2018-02-17T11:26:02.703Z,100883.86
2018-02-17T11:28:31.966Z,100877.99
2018-02-17T11:31:01.225Z,100871.72
2018-02-17T11:33:30.551Z,100875.65
2018-02-17T11:35:59.766Z,100881.33
2018-02-17T11:38:30.509Z,100879.98
2018-02-17T11:40:59.902Z,100871.75
2018-02-17T11:43:29.130Z,100874.88
2018-02-17T11:45:59.137Z,100872.62
2018-02-17T11:48:29.159Z,100882.71
2018-02-17T11:50:59.156Z,100877.47
2018-02-17T11:53:28.538Z,100877.63
2018-02-17T11:55:57.784Z,100878.74
2018-02-17T11:58:27.771Z,100880.25
2018-02-17T12:00:57.179Z,100885.09
2018-02-17T12:03:27.165Z,100874.22
2018-02-17T12:05:56.493Z,100878.95
2018-02-17T12:08:26.466Z,100884.23
2018-02-17T12:10:55.713Z,100888.96
2018-02-17T12:13:25.117Z,100877.92
2018-02-17T12:15:54.324Z,100878.88
2018-02-17T12:18:24.554Z,100876.35
2018-02-17T12:20:53.789Z,100869.75
2018-02-17T12:23:23.335Z,100873.38
2018-02-17T12:25:53.338Z,100871.23
2018-02-17T12:28:22.629Z,100868.53
2018-02-17T12:30:51.870Z,100869.24
2018-02-17T12:33:21.148Z,100869.92
2018-02-17T12:35:50.349Z,100868.98
2018-02-17T12:38:19.569Z,100860.50
2018-02-17T12:40:49.529Z,100871.39
2018-02-17T12:43:18.789Z,100868.58
2018-02-17T12:45:48.755Z,100869.66
2018-02-17T12:48:17.986Z,100878.14
2018-02-17T12:50:47.943Z,100878.70
2018-02-17T12:53:17.240Z,100881.64
2018-02-17T12:55:46.430Z,100884.06
2018-02-17T12:58:15.679Z,100883.54
2018-02-17T13:00:44.889Z,100880.05
2018-02-17T13:03:14.868Z,100879.65
2018-02-17T13:05:44.081Z,100876.14
2018-02-17T13:08:13.303Z,100875.05
2018-02-17T13:10:43.314Z,100872.64
2018-02-17T13:13:13.327Z,100874.66
2018-02-17T13:15:42.547Z,100870.47
2018-02-17T13:18:12.743Z,100880.84
2018-02-17T13:20:42.923Z,100885.71
2018-02-17T13:23:12.175Z,100876.14
2018-02-17T13:25:41.480Z,100882.60
2018-02-17T13:28:17.276Z,100877.89
2018-02-17T13:30:46.628Z,100879.50
2018-02-17T13:33:15.858Z,100880.19
2018-02-17T13:35:45.230Z,100880.44
2018-02-17T13:38:14.478Z,100889.61
2018-02-17T13:40:43.689Z,100885.44
2018-02-17T13:43:12.911Z,100882.08
2018-02-17T13:45:42.895Z,100889.20
2018-02-17T13:48:12.115Z,100894.86
2018-02-17T13:50:42.117Z,100887.98
2018-02-17T13:53:11.421Z,100891.88
2018-02-17T13:55:40.788Z,100893.11
2018-02-17T13:58:10.212Z,100894.73
2018-02-17T14:00:40.119Z,100896.48
2018-02-17T14:03:09.344Z,100897.56
2018-02-17T14:05:38.570Z,100899.03
2018-02-17T14:08:07.792Z,100900.11
2018-02-17T14:10:37.061Z,100899.45
2018-02-17T14:13:07.134Z,100904.01
2018-02-17T14:15:36.603Z,100911.30
2018-02-17T14:18:06.775Z,100916.81
2018-02-17T14:20:36.124Z,100911.97
2018-02-17T14:23:05.365Z,100913.59
2018-02-17T14:25:34.581Z,100920.20
2018-02-17T14:28:04.543Z,100913.46
2018-02-17T14:30:33.800Z,100913.98
2018-02-17T14:33:03.005Z,100912.52
2018-02-17T14:35:32.258Z,100913.17
2018-02-17T14:38:01.460Z,100917.94
2018-02-17T14:40:30.779Z,100910.25
2018-02-17T14:42:59.980Z,100910.22
2018-02-17T14:45:29.197Z,100909.02
2018-02-17T14:47:59.204Z,100908.20
2018-02-17T14:50:28.469Z,100913.91
2018-02-17T14:52:57.868Z,100916.03
2018-02-17T14:55:27.126Z,100919.92
2018-02-17T14:57:56.352Z,100915.22
2018-02-17T15:00:25.617Z,100912.52
2018-02-17T15:02:56.308Z,100917.89
2018-02-17T15:05:25.531Z,100917.77
2018-02-17T15:07:54.951Z,100916.96
2018-02-17T15:10:24.161Z,100912.12
2018-02-17T15:12:53.397Z,100920.48
2018-02-17T15:15:22.616Z,100916.69
2018-02-17T15:17:52.990Z,100915.77
2018-02-17T15:20:22.209Z,100917.66
2018-02-17T15:22:51.527Z,100929.27
2018-02-17T15:25:20.744Z,100926.56
2018-02-17T15:27:49.951Z,100921.02
2018-02-17T15:30:19.929Z,100928.55
2018-02-17T15:32:50.734Z,100929.89
2018-02-17T15:35:19.994Z,100926.38
2018-02-17T15:37:49.153Z,100920.46
2018-02-17T15:40:18.376Z,100923.42
2018-02-17T15:42:47.598Z,100924.63
2018-02-17T15:45:17.603Z,100923.43
2018-02-17T15:47:47.656Z,100926.66
2018-02-17T15:50:16.887Z,100927.59
2018-02-17T15:52:46.148Z,100925.17
2018-02-17T15:55:15.385Z,100930.15
2018-02-17T15:57:44.579Z,100935.13
2018-02-17T16:00:13.822Z,100934.73
2018-02-17T16:02:43.991Z,100935.95
2018-02-17T16:05:13.226Z,100940.25
2018-02-17T16:07:43.222Z,100940.53
2018-02-17T16:10:12.443Z,100944.27
2018-02-17T16:12:42.591Z,100944.14
2018-02-17T16:15:11.795Z,100942.00
2018-02-17T16:17:41.023Z,100950.08
2018-02-17T16:20:10.258Z,100951.55
2018-02-17T16:22:40.263Z,100948.97
2018-02-17T16:25:10.240Z,100949.48
2018-02-17T16:27:39.527Z,100955.14
2018-02-17T16:30:09.510Z,100951.34
2018-02-17T16:32:39.519Z,100956.87
2018-02-17T16:35:09.484Z,100952.19
2018-02-17T16:37:38.744Z,100951.75
2018-02-17T16:40:07.956Z,100956.20
2018-02-17T16:42:37.199Z,100957.81
2018-02-17T16:45:06.498Z,100964.52
2018-02-17T16:47:35.712Z,100974.45
2018-02-17T16:50:05.760Z,100968.67
2018-02-17T16:52:35.259Z,100975.64
2018-02-17T16:55:04.476Z,100982.36
2018-02-17T16:57:33.749Z,100981.02
2018-02-17T17:00:03.759Z,100982.09
2018-02-17T17:02:33.784Z,100989.33
2018-02-17T17:05:03.750Z,100983.81
2018-02-17T17:07:33.002Z,100981.39
2018-02-17T17:10:03.018Z,100983.78
2018-02-17T17:12:32.231Z,100986.34
2018-02-17T17:15:01.506Z,100997.37
2018-02-17T17:17:30.888Z,101002.17
2018-02-17T17:20:00.103Z,100997.83
2018-02-17T17:22:30.095Z,101009.90
2018-02-17T17:24:59.490Z,101010.13
2018-02-17T17:27:28.749Z,101009.55
2018-02-17T17:29:58.180Z,101009.09
2018-02-17T17:32:27.450Z,101013.08
2018-02-17T17:34:57.452Z,101016.25
2018-02-17T17:37:26.660Z,101021.08
2018-02-17T17:39:55.905Z,101028.02
2018-02-17T17:42:25.099Z,101020.31
2018-02-17T17:44:54.383Z,101023.39
2018-02-17T17:47:23.599Z,101022.27
2018-02-17T17:49:52.831Z,101034.36
2018-02-17T17:52:22.060Z,101029.38
2018-02-17T17:54:51.325Z,101032.53
2018-02-17T17:57:20.484Z,101034.50
2018-02-17T17:59:49.722Z,101040.87
2018-02-17T18:02:18.959Z,101040.95
2018-02-17T18:04:48.169Z,101047.72
2018-02-17T18:07:17.707Z,101051.02
2018-02-17T18:09:47.696Z,101052.39
2018-02-17T18:12:16.975Z,101050.66
2018-02-17T18:14:46.197Z,101062.43
2018-02-17T18:17:15.424Z,101053.61
2018-02-17T18:19:44.682Z,101057.43
2018-02-17T18:22:13.905Z,101066.27
2018-02-17T18:24:43.131Z,101060.12
2018-02-17T18:27:12.405Z,101061.16
2018-02-17T18:29:42.444Z,101061.99
2018-02-17T18:32:11.668Z,101069.06
2018-02-17T18:34:40.886Z,101071.74
2018-02-17T18:37:10.096Z,101076.30
2018-02-17T18:39:39.313Z,101075.23
2018-02-17T18:42:08.518Z,101073.36
2018-02-17T18:44:38.515Z,101082.09
2018-02-17T18:47:07.701Z,101079.94
2018-02-17T18:49:36.920Z,101085.69
2018-02-17T18:52:06.191Z,101086.15
2018-02-17T18:54:35.427Z,101082.98
2018-02-17T18:57:05.175Z,101081.16
2018-02-17T18:59:34.401Z,101081.61
2018-02-17T19:02:03.641Z,101080.37
2018-02-17T19:04:33.591Z,101084.59
2018-02-17T19:07:02.920Z,101079.32
2018-02-17T19:09:33.785Z,101078.98
2018-02-17T19:12:03.780Z,101084.35
2018-02-17T19:14:33.011Z,101088.85
2018-02-17T19:17:02.266Z,101086.45
2018-02-17T19:19:31.504Z,101083.43
2018-02-17T19:22:00.764Z,101077.77
2018-02-17T19:24:29.996Z,101076.02
2018-02-17T19:26:59.993Z,101079.73
2018-02-17T19:29:29.251Z,101076.64
2018-02-17T19:31:58.477Z,101070.97
2018-02-17T19:34:27.703Z,101079.23
2018-02-17T19:36:57.688Z,101077.55
2018-02-17T19:39:26.931Z,101078.89
2018-02-17T19:41:56.157Z,101076.36
2018-02-17T19:44:25.389Z,101073.46
2018-02-17T19:46:55.405Z,101071.09
2018-02-17T19:49:24.649Z,101075.84
2018-02-17T19:51:53.912Z,101075.34
2018-02-17T19:54:23.136Z,101073.75
2018-02-17T19:56:52.391Z,101076.71
2018-02-17T19:59:22.976Z,101079.39
2018-02-17T20:01:52.208Z,101070.81
2018-02-17T20:04:21.443Z,101084.53
2018-02-17T20:06:51.444Z,101082.61
2018-02-17T20:09:20.686Z,101083.39
2018-02-17T20:11:50.064Z,101098.52
2018-02-17T20:14:19.344Z,101101.14
2018-02-17T20:16:48.713Z,101094.25
2018-02-17T20:19:17.979Z,101103.20
2018-02-17T20:21:47.264Z,101099.81
2018-02-17T20:24:17.251Z,101111.04
2018-02-17T20:26:46.508Z,101108.48
2018-02-17T20:29:15.711Z,101117.38
2018-02-17T20:31:44.974Z,101121.80
2018-02-17T20:34:14.201Z,101122.84
2018-02-17T20:36:43.435Z,101124.97
2018-02-17T20:39:12.645Z,101127.75
2018-02-17T20:41:42.522Z,101126.23
2018-02-17T20:44:11.740Z,101132.66
2018-02-17T20:46:40.981Z,101139.31
2018-02-17T20:49:10.957Z,101135.55
2018-02-17T20:51:40.196Z,101139.17
2018-02-17T20:54:09.607Z,101149.34
2018-02-17T20:56:39.758Z,101151.94
2018-02-17T20:59:09.900Z,101145.25
2018-02-17T21:01:39.169Z,101154.95
2018-02-17T21:04:08.463Z,101158.80
2018-02-17T21:06:37.665Z,101159.80
2018-02-17T21:09:06.883Z,101145.66
2018-02-17T21:11:36.120Z,101152.51
2018-02-17T21:14:06.184Z,101151.05
2018-02-17T21:16:35.373Z,101149.91
2018-02-17T21:19:04.643Z,101152.22
2018-02-17T21:21:33.879Z,101158.27
2018-02-17T21:24:03.118Z,101156.48
2018-02-17T21:26:33.133Z,101167.70
2018-02-17T21:29:03.867Z,101170.27
2018-02-17T21:31:33.844Z,101166.17
2018-02-17T21:34:03.080Z,101173.80
2018-02-17T21:36:32.297Z,101178.17
2018-02-17T21:39:02.335Z,101189.27
2018-02-17T21:41:31.704Z,101189.95
2018-02-17T21:44:01.766Z,101186.72
2018-02-17T21:46:30.973Z,101195.79
2018-02-17T21:49:00.193Z,101201.83
2018-02-17T21:51:29.475Z,101197.58
2018-02-17T21:53:58.651Z,101211.55
2018-02-17T21:56:27.875Z,101203.41
2018-02-17T21:58:57.151Z,101207.05
2018-02-17T22:01:26.488Z,101213.22
2018-02-17T22:03:55.697Z,101218.40
2018-02-17T22:06:24.925Z,101215.44
2018-02-17T22:08:54.133Z,101223.00
2018-02-17T22:11:23.367Z,101220.66
2018-02-17T22:13:52.599Z,101221.13
2018-02-17T22:16:22.607Z,101224.98
2018-02-17T22:18:51.868Z,101222.46
2018-02-17T22:21:21.080Z,101224.68
2018-02-17T22:23:51.967Z,101227.05
2018-02-17T22:26:21.435Z,101231.80
2018-02-17T22:28:50.656Z,101225.39
2018-02-17T22:31:19.910Z,101224.49
2018-02-17T22:33:49.133Z,101223.05
2018-02-17T22:36:19.178Z,101227.35
2018-02-17T22:38:48.433Z,101223.98
2018-02-17T22:41:19.176Z,101228.20
2018-02-17T22:43:49.178Z,101226.63
2018-02-17T22:46:18.430Z,101227.97
2018-02-17T22:48:47.655Z,101225.41
2018-02-17T22:51:16.874Z,101231.48
2018-02-17T22:53:46.145Z,101231.61
2018-02-17T22:56:15.655Z,101231.61
2018-02-17T22:58:44.919Z,101228.59
2018-02-17T23:01:14.254Z,101239.05
2018-02-17T23:03:43.598Z,101232.89
2018-02-17T23:06:13.755Z,101236.72
2018-02-17T23:08:44.057Z,101231.50
2018-02-17T23:11:14.254Z,101236.84
2018-02-17T23:13:43.524Z,101239.72
2018-02-17T23:16:12.863Z,101241.58
2018-02-17T23:18:42.957Z,101237.69
2018-02-17T23:21:12.230Z,101237.10
2018-02-17T23:23:41.451Z,101238.67
2018-02-17T23:26:10.691Z,101235.16
2018-02-17T23:28:40.711Z,101238.41
2018-02-17T23:31:09.966Z,101229.33
2018-02-17T23:33:39.188Z,101228.80
2018-02-17T23:36:09.295Z,101227.23
2018-02-17T23:38:38.523Z,101231.77
2018-02-17T23:41:07.787Z,101227.87
2018-02-17T23:43:37.020Z,101229.50
2018-02-17T23:46:06.290Z,101230.74
2018-02-17T23:48:35.495Z,101225.89
2018-02-17T23:51:05.484Z,101228.04
2018-02-17T23:53:34.701Z,101231.93
2018-02-17T23:56:04.709Z,101239.37
2018-02-17T23:58:35.422Z,101239.60
